Time;durP1;ratioP1;P1;durP2;ratioP2;P2;SDS_P1;SDS_P2;PMS_P1;PMS_P2;Temp;Humidity;BMP_temperature;BMP_pressure;BME280_temperature;BME280_humidity;BME280_pressure;Samples;Min_cycle;Max_cycle;Signal;HPM_P1;HPM_P2
2022/11/09 05:32:53;;;;;;;;;0.00;0.00;;;;;12.68;77.27;100536.66;5053247;27;45361;-78
2022/11/09 05:35:18;;;;;;;;;2.00;0.00;;;;;12.65;77.09;100535.97;5053922;28;45552;-79
2022/11/09 05:37:47;;;;;;;;;0.00;0.00;;;;;12.58;77.57;100527.41;5054021;28;45469;-77
2022/11/09 05:40:13;;;;;;;;;0.00;0.00;;;;;12.80;77.47;100556.59;5052622;28;47105;-78
2022/11/09 05:42:42;;;;;;;;;2.00;0.75;;;;;12.80;77.58;100546.72;5035118;28;45474;-78
2022/11/09 05:45:12;;;;;;;;;0.00;0.00;;;;;12.48;77.12;100488.56;5035731;28;45340;-77
2022/11/09 05:47:38;;;;;;;;;2.00;1.00;;;;;12.86;77.59;100546.34;5054283;28;45402;-78
2022/11/09 05:50:06;;;;;;;;;1.00;1.00;;;;;12.69;77.49;100516.00;5054163;28;45476;-79
2022/11/09 05:52:35;;;;;;;;;2.00;0.25;;;;;12.81;77.06;100536.81;5054392;28;45675;-77
2022/11/09 05:55:00;;;;;;;;;2.25;1.00;;;;;12.56;77.04;100488.97;5052623;28;45332;-77
2022/11/09 05:57:27;;;;;;;;;2.00;1.00;;;;;12.44;77.39;100473.53;5035545;28;45517;-77
2022/11/09 05:59:52;;;;;;;;;4.50;1.00;;;;;12.68;77.40;100519.66;5035885;28;45494;-80
2022/11/09 06:02:20;;;;;;;;;0.50;0.00;;;;;12.24;77.44;100453.22;5059279;28;45395;-79
2022/11/09 06:04:45;;;;;;;;;0.75;0.75;;;;;12.29;77.53;100456.47;5039830;28;45328;-76
2022/11/09 06:07:20;;;;;;;;;0.75;0.25;;;;;12.83;77.73;100551.94;5056548;28;45454;-83
2022/11/09 06:09:45;;;;;;;;;1.50;1.50;;;;;12.66;78.13;100532.34;5039888;28;47434;-75
2022/11/09 06:12:11;;;;;;;;;1.00;1.00;;;;;12.62;78.35;100523.56;5062019;28;45300;-77
2022/11/09 06:14:36;;;;;;;;;3.75;1.00;;;;;12.90;78.27;100563.19;5057488;28;45242;-75
2022/11/09 06:17:01;;;;;;;;;1.00;1.00;;;;;12.84;78.21;100544.72;5054376;28;45536;-71
2022/11/09 06:19:27;;;;;;;;;2.75;2.00;;;;;12.69;78.81;100545.59;5049642;28;45986;-80
2022/11/09 06:21:52;;;;;;;;;1.50;1.50;;;;;12.68;79.12;100536.66;5054751;28;45394;-82
2022/11/09 06:24:18;;;;;;;;;3.00;1.00;;;;;12.83;79.42;100572.59;5056181;28;45690;-81
2022/11/09 06:26:43;;;;;;;;;2.00;2.00;;;;;12.83;79.54;100578.84;5058005;28;45575;-78
2022/11/09 06:29:09;;;;;;;;;4.00;2.25;;;;;12.79;79.65;100576.41;5057339;28;46285;-74
2022/11/09 06:31:34;;;;;;;;;3.75;2.00;;;;;12.83;78.90;100575.28;5046727;28;45376;-76
2022/11/09 06:34:00;;;;;;;;;3.00;1.00;;;;;12.82;79.38;100585.16;5036049;28;45296;-75
2022/11/09 06:36:26;;;;;;;;;1.00;1.00;;;;;12.75;79.65;100569.47;5034806;28;45567;-77
2022/11/09 06:38:51;;;;;;;;;1.00;1.00;;;;;12.81;79.25;100593.31;5033931;28;45462;-78
2022/11/09 06:41:17;;;;;;;;;4.00;1.00;;;;;12.85;79.41;100600.25;5014318;28;45531;-75
2022/11/09 06:43:43;;;;;;;;;2.00;1.25;;;;;12.76;79.38;100576.59;5032148;28;45528;-78
2022/11/09 06:46:09;;;;;;;;;1.25;1.25;;;;;12.93;79.21;100606.06;5033094;28;45376;-73
2022/11/09 06:48:35;;;;;;;;;1.25;1.25;;;;;12.89;79.44;100600.00;5032466;28;45550;-71
2022/11/09 06:51:02;;;;;;;;;1.00;1.00;;;;;12.96;79.75;100616.66;5033781;28;45468;-73
2022/11/09 06:53:29;;;;;;;;;5.00;2.00;;;;;12.97;79.56;100614.81;5016425;28;45357;-76
2022/11/09 06:56:02;;;;;;;;;3.50;1.75;;;;;12.94;79.89;100617.69;5034069;28;45422;-73
2022/11/09 06:58:28;;;;;;;;;2.50;2.50;;;;;12.94;80.03;100621.25;5033503;28;45572;-71
2022/11/09 07:00:53;;;;;;;;;2.00;2.00;;;;;12.99;79.74;100624.56;5033355;28;45418;-72
2022/11/09 07:03:20;;;;;;;;;3.00;1.00;;;;;12.97;80.10;100623.78;5032580;28;45422;-73
2022/11/09 07:05:46;;;;;;;;;5.00;2.00;;;;;12.96;79.83;100619.34;5034337;28;45617;-72
2022/11/09 07:08:13;;;;;;;;;3.00;1.75;;;;;12.98;79.95;100622.81;5032862;28;45466;-71
2022/11/09 07:10:38;;;;;;;;;3.00;1.25;;;;;13.00;79.62;100633.50;5033928;28;46063;-73
2022/11/09 07:13:04;;;;;;;;;1.75;1.75;;;;;13.00;80.20;100631.69;5035225;28;45391;-73
2022/11/09 07:15:31;;;;;;;;;1.50;1.50;;;;;12.95;79.88;100638.25;5034234;28;45495;-71
2022/11/09 07:18:01;;;;;;;;;2.00;2.00;;;;;12.90;80.42;100625.09;5015775;28;47225;-72
2022/11/09 07:20:27;;;;;;;;;3.00;1.75;;;;;12.98;80.43;100643.47;5014613;28;45988;-72
2022/11/09 07:22:52;;;;;;;;;2.00;2.00;;;;;12.87;80.44;100630.63;5033323;28;45466;-72
2022/11/09 07:25:18;;;;;;;;;4.00;2.75;;;;;12.95;80.80;100644.50;5032499;28;45934;-72
2022/11/09 07:27:44;;;;;;;;;4.75;3.00;;;;;12.97;80.75;100655.19;5034814;28;45469;-73
2022/11/09 07:30:10;;;;;;;;;2.00;2.00;;;;;12.99;80.27;100654.16;4985159;28;45294;-72
2022/11/09 07:32:37;;;;;;;;;3.50;3.00;;;;;12.98;80.63;100663.19;5051818;28;45378;-72
2022/11/09 07:35:03;;;;;;;;;2.00;2.00;;;;;12.96;80.90;100658.84;5055763;28;45512;-73
2022/11/09 07:37:30;;;;;;;;;2.50;2.50;;;;;12.96;80.70;100664.22;5055938;28;46330;-73
2022/11/09 07:39:55;;;;;;;;;3.00;3.00;;;;;12.99;80.40;100658.66;5055383;28;45404;-73
2022/11/09 07:42:21;;;;;;;;;3.00;2.50;;;;;12.98;81.01;100655.09;5054708;28;45739;-74
2022/11/09 07:44:46;;;;;;;;;3.75;1.75;;;;;12.95;81.17;100660.66;5055668;28;45280;-73
2022/11/09 07:47:12;;;;;;;;;3.00;3.00;;;;;12.96;81.15;100656.13;5055988;28;45352;-73
2022/11/09 07:49:37;;;;;;;;;4.00;1.75;;;;;12.93;81.09;100656.34;5056218;28;45639;-73
2022/11/09 07:52:03;;;;;;;;;3.50;3.50;;;;;12.76;81.31;100625.84;5054476;28;45909;-71
2022/11/09 07:54:28;;;;;;;;;3.50;3.50;;;;;12.97;81.07;100661.44;5054816;28;45596;-72
2022/11/09 07:56:53;;;;;;;;;3.00;2.75;;;;;13.02;80.65;100671.94;5055257;28;46940;-73
2022/11/09 07:59:19;;;;;;;;;2.00;2.00;;;;;13.03;80.96;100671.84;5055107;28;46818;-72
2022/11/09 08:01:44;;;;;;;;;3.75;3.75;;;;;13.02;81.08;100675.50;5055282;28;45835;-73
2022/11/09 08:04:09;;;;;;;;;2.25;2.00;;;;;13.07;81.16;100680.63;5055525;28;45533;-72
2022/11/09 08:06:35;;;;;;;;;2.00;2.00;;;;;13.13;80.65;100686.56;5054836;28;45353;-73
2022/11/09 08:09:00;;;;;;;;;4.00;3.00;;;;;13.13;80.91;100691.03;5052284;28;45461;-72
2022/11/09 08:11:26;;;;;;;;;3.75;3.25;;;;;13.19;80.95;100693.41;5054308;28;45485;-75
2022/11/09 08:13:51;;;;;;;;;4.00;2.00;;;;;13.27;80.33;100693.00;5054818;28;45517;-73
2022/11/09 08:16:17;;;;;;;;;5.75;4.25;;;;;13.21;79.90;100672.66;5052826;28;45481;-72
2022/11/09 08:18:42;;;;;;;;;2.25;2.00;;;;;13.34;80.27;100705.13;5051456;28;45478;-73
2022/11/09 08:21:08;;;;;;;;;3.00;3.00;;;;;13.27;80.04;100696.50;5054128;28;45545;-73
2022/11/09 08:23:34;;;;;;;;;3.00;3.00;;;;;13.22;80.02;100686.03;5053337;28;45583;-72
2022/11/09 08:26:05;;;;;;;;;4.50;3.00;;;;;13.39;79.87;100703.91;5052430;28;46545;-71
2022/11/09 08:28:31;;;;;;;;;3.00;2.00;;;;;13.34;79.84;100694.38;5051907;28;45522;-72
2022/11/09 08:30:59;;;;;;;;;3.00;3.00;;;;;13.30;80.08;100696.34;5052345;28;45457;-73
2022/11/09 08:33:26;;;;;;;;;3.50;2.75;;;;;13.16;79.63;100669.38;5052252;28;45560;-72
2022/11/09 08:35:52;;;;;;;;;3.00;3.00;;;;;13.43;79.76;100707.28;5053512;28;45983;-73
2022/11/09 08:38:18;;;;;;;;;3.00;3.00;;;;;13.25;79.70;100672.41;5054143;28;45710;-72
2022/11/09 08:40:43;;;;;;;;;4.00;2.75;;;;;13.29;79.60;100686.53;5053132;28;45380;-73
2022/11/09 08:43:10;;;;;;;;;3.50;2.50;;;;;13.40;79.61;100707.47;5033933;28;46028;-72
2022/11/09 08:45:38;;;;;;;;;6.00;6.00;;;;;13.53;79.29;100719.25;5051653;28;46207;-71
2022/11/09 08:48:04;;;;;;;;;5.25;4.50;;;;;13.62;79.01;100716.00;5052612;28;45425;-74
2022/11/09 08:50:31;;;;;;;;;3.75;3.00;;;;;13.69;78.34;100719.22;5053415;28;45380;-71
2022/11/09 08:52:57;;;;;;;;;4.00;2.25;;;;;13.65;78.12;100705.06;5053946;28;45641;-72
2022/11/09 08:55:23;;;;;;;;;4.00;2.25;;;;;13.83;78.28;100740.84;5053421;28;46029;-71
2022/11/09 08:57:53;;;;;;;;;5.25;1.00;;;;;13.77;77.56;100728.59;5054200;28;45371;-73
2022/11/09 09:00:18;;;;;;;;;2.00;2.00;;;;;13.87;77.73;100739.66;5053702;28;45460;-72
2022/11/09 09:02:45;;;;;;;;;2.50;1.50;;;;;13.88;77.52;100750.38;5035568;28;46315;-73
2022/11/09 09:05:10;;;;;;;;;3.00;3.00;;;;;13.91;77.48;100749.31;5054662;28;46114;-73
2022/11/09 09:07:36;;;;;;;;;2.00;2.00;;;;;14.06;77.30;100743.00;5054283;28;45339;-73
2022/11/09 09:10:02;;;;;;;;;3.00;3.00;;;;;13.94;76.48;100735.69;5053630;28;45470;-73
2022/11/09 09:12:27;;;;;;;;;2.50;2.00;;;;;13.97;76.70;100730.94;5035028;28;46778;-73
2022/11/09 09:14:52;;;;;;;;;2.25;2.00;;;;;14.14;76.09;100756.91;5054204;28;46089;-73
2022/11/09 09:17:18;;;;;;;;;2.25;1.75;;;;;14.17;76.12;100762.09;5054155;28;45389;-73
2022/11/09 09:19:43;;;;;;;;;3.50;2.50;;;;;14.19;75.90;100759.31;5054240;28;45701;-75
2022/11/09 09:22:08;;;;;;;;;3.75;2.00;;;;;14.17;75.94;100751.31;5054393;28;45473;-72
2022/11/09 09:24:34;;;;;;;;;1.00;1.00;;;;;14.31;75.27;100774.75;5053904;28;46205;-74
2022/11/09 09:27:00;;;;;;;;;4.00;1.00;;;;;14.30;74.84;100756.81;5054154;28;45304;-73
2022/11/09 09:29:25;;;;;;;;;2.50;2.50;;;;;14.31;74.75;100759.44;5052568;28;45436;-72
2022/11/09 09:31:50;;;;;;;;;2.25;1.00;;;;;14.26;73.98;100752.59;5054180;28;45615;-75
2022/11/09 09:34:16;;;;;;;;;2.00;2.00;;;;;14.29;73.20;100765.91;5054331;28;46902;-72
2022/11/09 09:36:41;;;;;;;;;3.00;1.00;;;;;14.31;73.33;100772.91;5054116;28;45421;-73
2022/11/09 09:39:07;;;;;;;;;2.00;2.00;;;;;14.38;73.61;100777.00;5053996;28;45448;-71
2022/11/09 09:41:44;;;;;;;;;3.00;1.75;;;;;14.50;73.57;100779.91;5054351;28;45623;-73
2022/11/09 09:44:44;;;;;;;;;2.00;1.00;;;;;14.55;72.34;100788.59;5053712;28;45542;-73
2022/11/09 09:47:18;;;;;;;;;4.75;1.00;;;;;14.48;72.90;100773.75;5054231;28;45383;-74
2022/11/09 09:50:06;;;;;;;;;2.75;1.25;;;;;14.64;72.86;100788.88;5054642;28;45399;-73
2022/11/09 09:52:48;;;;;;;;;2.25;2.25;;;;;14.74;71.97;100794.59;5053787;28;45854;-73
2022/11/09 09:55:39;;;;;;;;;2.00;2.00;;;;;14.80;72.45;100785.25;5054219;28;46502;-73
2022/11/09 09:58:26;;;;;;;;;3.75;2.00;;;;;14.85;71.13;100794.78;5055097;28;45511;-73
2022/11/09 10:00:57;;;;;;;;;1.00;1.00;;;;;14.83;70.78;100791.31;5058012;28;45165;-75
2022/11/09 10:03:22;;;;;;;;;4.25;1.50;;;;;14.74;70.77;100797.28;5057236;28;45537;-74
2022/11/09 10:06:05;;;;;;;;;2.00;2.00;;;;;14.92;70.91;100816.88;5057321;28;45382;-75
2022/11/09 10:08:37;;;;;;;;;1.25;1.25;;;;;14.89;69.98;100804.41;5038983;28;45496;-74
2022/11/09 10:11:29;;;;;;;;;2.50;1.25;;;;;14.95;70.31;100817.56;5057370;28;45247;-74
2022/11/09 10:14:14;;;;;;;;;2.00;1.00;;;;;14.91;69.50;100810.59;5057699;28;45496;-74
2022/11/09 10:16:45;;;;;;;;;6.00;2.00;;;;;15.00;70.16;100822.66;5057111;28;45410;-73
2022/11/09 10:19:50;;;;;;;;;3.75;2.75;;;;;14.97;69.72;100822.88;5057030;28;45320;-73
2022/11/09 10:22:25;;;;;;;;;6.25;1.50;;;;;14.98;69.73;100832.66;5058272;28;45406;-73
2022/11/09 10:25:08;;;;;;;;;3.00;1.00;;;;;14.96;69.37;100834.63;5057463;28;45284;-73
2022/11/09 10:27:39;;;;;;;;;2.00;1.50;;;;;15.04;69.44;100838.56;5057860;28;45577;-73
2022/11/09 10:30:14;;;;;;;;;1.50;1.00;;;;;15.23;68.63;100838.25;5057749;28;45459;-73
2022/11/09 10:32:42;;;;;;;;;2.00;2.00;;;;;15.33;67.87;100852.06;5036315;28;45412;-71
2022/11/09 10:35:43;;;;;;;;;6.00;3.00;;;;;15.34;67.95;100841.16;5055397;28;45390;-73
2022/11/09 10:38:14;;;;;;;;;3.00;0.00;;;;;15.39;67.80;100843.56;5056511;28;47408;-73
2022/11/09 10:40:57;;;;;;;;;1.50;1.50;;;;;15.34;67.88;100829.47;5056749;28;45604;-74
2022/11/09 10:43:23;;;;;;;;;3.50;2.00;;;;;15.56;67.59;100842.53;5056980;28;45489;-73
2022/11/09 10:45:58;;;;;;;;;5.25;2.25;;;;;15.68;66.37;100836.28;5056367;28;45549;-74
2022/11/09 10:48:35;;;;;;;;;4.00;2.00;;;;;15.88;66.33;100834.03;5056566;28;45455;-73
2022/11/09 10:51:01;;;;;;;;;3.00;1.50;;;;;16.07;64.33;100840.91;5041616;28;45328;-74
2022/11/09 10:53:29;;;;;;;;;1.50;1.50;;;;;16.33;63.76;100847.28;5055644;28;45329;-73
2022/11/09 10:56:11;;;;;;;;;0.50;0.00;;;;;16.72;63.18;100838.25;5055863;28;45241;-74
2022/11/09 10:58:39;;;;;;;;;1.00;1.00;;;;;17.00;61.81;100808.25;5055599;28;46074;-73
2022/11/09 11:01:15;;;;;;;;;3.00;1.25;;;;;17.95;59.53;100840.16;5056565;28;45244;-73
2022/11/09 11:03:42;;;;;;;;;2.75;1.00;;;;;18.80;56.38;100830.84;5054227;28;45569;-74
2022/11/09 11:06:13;;;;;;;;;2.00;2.00;;;;;19.35;54.12;100840.03;5056500;28;45294;-74
2022/11/09 11:08:41;;;;;;;;;2.75;1.75;;;;;19.73;53.99;100850.56;5054534;28;45375;-72
2022/11/09 11:11:21;;;;;;;;;0.50;0.50;;;;;20.26;52.11;100854.22;5055611;28;45451;-73
2022/11/09 11:13:48;;;;;;;;;1.00;1.00;;;;;20.16;51.59;100847.84;5056621;28;45386;-73
2022/11/09 11:16:23;;;;;;;;;2.00;0.00;;;;;19.87;52.13;100859.28;5055916;28;45249;-72
2022/11/09 11:18:48;;;;;;;;;2.25;0.75;;;;;19.50;53.13;100853.28;5056839;28;45519;-73
2022/11/09 11:21:17;;;;;;;;;2.75;0.00;;;;;18.95;53.46;100839.66;5059157;28;45658;-73
2022/11/09 11:23:42;;;;;;;;;3.50;1.75;;;;;18.44;54.83;100848.13;5065348;28;45198;-72
2022/11/09 11:26:31;;;;;;;;;6.75;1.00;;;;;18.19;54.30;100865.44;5055883;28;45406;-73
2022/11/09 11:29:03;;;;;;;;;1.25;1.25;;;;;18.25;53.79;100862.25;5056188;28;46244;-74
2022/11/09 11:31:29;;;;;;;;;1.50;0.00;;;;;18.38;53.28;100854.88;5055510;28;45367;-74
2022/11/09 11:33:55;;;;;;;;;1.50;1.50;;;;;18.67;53.29;100847.25;5039394;28;45410;-73
2022/11/09 11:36:41;;;;;;;;;1.00;0.50;;;;;19.04;52.36;100849.78;5039207;28;45639;-71
2022/11/09 11:39:22;;;;;;;;;2.50;1.00;;;;;19.09;51.26;100880.19;5056892;28;46099;-76
2022/11/09 11:42:02;;;;;;;;;3.25;1.00;;;;;19.05;51.57;100868.69;5055628;28;45416;-75
2022/11/09 11:44:51;;;;;;;;;0.25;0.25;;;;;19.35;51.23;100843.63;5037583;28;45561;-75
2022/11/09 11:47:26;;;;;;;;;1.00;1.00;;;;;19.73;50.32;100866.88;5013881;28;45709;-74
2022/11/09 11:50:17;;;;;;;;;1.50;1.50;;;;;19.54;49.98;100846.63;5055731;28;46268;-75
2022/11/09 11:53:12;;;;;;;;;0.75;0.75;;;;;19.72;49.06;100854.25;5055574;28;45355;-75
2022/11/09 11:55:51;;;;;;;;;1.25;1.25;;;;;19.78;49.80;100864.63;5057950;28;45437;-72
2022/11/09 11:58:31;;;;;;;;;2.25;1.25;;;;;19.46;49.11;100853.63;5037835;28;45724;-74
2022/11/09 12:01:11;;;;;;;;;2.50;0.50;;;;;19.37;50.30;100863.41;5055511;28;45392;-74
2022/11/09 12:03:57;;;;;;;;;3.50;1.00;;;;;19.12;51.16;100858.19;5037175;28;45483;-75
2022/11/09 12:06:47;;;;;;;;;2.25;2.25;;;;;19.02;50.90;100876.22;5055330;28;45493;-76
2022/11/09 12:09:18;;;;;;;;;1.00;1.00;;;;;18.68;51.18;100868.00;5055079;28;45433;-74
2022/11/09 12:12:15;;;;;;;;;2.00;2.00;;;;;18.41;51.76;100865.53;5055086;28;46340;-75
2022/11/09 12:14:59;;;;;;;;;1.75;1.00;;;;;18.40;52.75;100868.34;5055180;28;45374;-74
2022/11/09 12:17:53;;;;;;;;;2.00;2.00;;;;;18.44;52.92;100865.28;5055432;28;45455;-75
2022/11/09 12:20:37;;;;;;;;;3.00;1.50;;;;;18.40;53.33;100871.06;5053106;28;45469;-73
2022/11/09 12:23:36;;;;;;;;;3.00;2.00;;;;;18.19;54.00;100880.84;5061751;28;45532;-70
2022/11/09 12:26:07;;;;;;;;;1.50;1.50;;;;;17.92;54.44;100862.94;5036409;28;45782;-71
2022/11/09 12:28:47;;;;;;;;;2.00;2.00;;;;;17.93;55.26;100864.69;5056511;28;45346;-71
2022/11/09 12:31:30;;;;;;;;;5.00;2.00;;;;;17.95;55.11;100870.00;5054850;28;45508;-71
2022/11/09 12:34:06;;;;;;;;;1.25;1.25;;;;;17.90;54.19;100875.75;5053936;28;45998;-72
2022/11/09 12:36:56;;;;;;;;;1.00;1.00;;;;;17.73;54.57;100866.16;5054005;28;45514;-70
2022/11/09 12:39:40;;;;;;;;;1.00;1.00;;;;;17.56;55.68;100873.75;5055529;28;45307;-74
2022/11/09 12:42:19;;;;;;;;;9.00;9.00;;;;;17.46;56.27;100868.13;5052054;28;45367;-70
2022/11/09 12:45:13;;;;;;;;;4.00;4.00;;;;;17.48;56.16;100865.31;5052067;28;45549;-71
2022/11/09 12:47:42;;;;;;;;;5.25;4.25;;;;;17.46;56.13;100875.38;5054692;28;45352;-72
2022/11/09 12:50:18;;;;;;;;;1.00;1.00;;;;;17.19;55.99;100848.41;5053429;28;45390;-72
2022/11/09 12:52:47;;;;;;;;;2.00;2.00;;;;;17.44;55.92;100871.94;5050918;28;45351;-72
2022/11/09 12:55:36;;;;;;;;;1.75;1.75;;;;;17.27;55.32;100846.03;5053069;28;46268;-73
2022/11/09 12:58:04;;;;;;;;;2.00;2.00;;;;;17.49;55.39;100869.75;5047249;28;45587;-75
2022/11/09 13:00:35;;;;;;;;;4.75;2.00;;;;;17.49;55.04;100884.16;5055018;28;45435;-72
2022/11/09 13:03:05;;;;;;;;;3.50;1.25;;;;;17.42;55.08;100874.75;5055392;28;45273;-73
2022/11/09 13:05:36;;;;;;;;;1.50;1.50;;;;;17.24;55.56;100865.25;5054353;28;45454;-74
2022/11/09 13:08:05;;;;;;;;;3.00;1.50;;;;;17.21;55.62;100876.28;5051445;28;45558;-74
2022/11/09 13:10:37;;;;;;;;;0.00;0.00;;;;;17.15;55.89;100882.16;5054123;28;45370;-75
2022/11/09 13:13:11;;;;;;;;;1.00;1.00;;;;;17.09;56.32;100897.00;5053645;28;45292;-73
2022/11/09 13:16:32;;;;;;;;;1.75;1.75;;;;;17.16;56.26;100886.59;5034989;28;47164;-74
2022/11/09 13:18:57;;;;;;;;;0.00;0.00;;;;;16.97;56.13;100878.88;4972087;28;45582;-74
2022/11/09 13:21:22;;;;;;;;;0.50;0.25;;;;;17.05;55.63;100902.72;5036873;28;45434;-74
2022/11/09 13:23:49;;;;;;;;;3.50;2.00;;;;;16.97;55.28;100893.31;5054875;28;45443;-75
2022/11/09 13:26:30;;;;;;;;;1.50;1.00;;;;;16.99;55.93;100896.78;5054336;28;45524;-73
2022/11/09 13:29:13;;;;;;;;;1.00;1.00;;;;;16.99;54.70;100902.19;5054360;28;45425;-72
2022/11/09 13:31:58;;;;;;;;;1.00;1.00;;;;;16.96;54.97;100906.94;5048941;28;45432;-75
2022/11/09 13:34:43;;;;;;;;;2.00;0.00;;;;;16.95;54.82;100911.50;5055550;28;46525;-73
2022/11/09 13:37:34;;;;;;;;;1.00;1.00;;;;;16.93;54.85;100913.44;5056267;28;45947;-74
2022/11/09 13:40:00;;;;;;;;;1.50;0.25;;;;;16.89;54.38;100892.97;5056411;28;45458;-74
2022/11/09 13:42:31;;;;;;;;;0.50;0.50;;;;;17.07;54.27;100903.50;5056966;28;45441;-71
2022/11/09 13:45:21;;;;;;;;;0.00;0.00;;;;;17.11;54.47;100913.13;5056907;28;45997;-72
2022/11/09 13:47:50;;;;;;;;;2.50;2.00;;;;;17.09;54.34;100890.72;5056920;28;45855;-70
2022/11/09 13:50:25;;;;;;;;;1.00;0.00;;;;;17.18;52.53;100906.31;5038858;28;45233;-72
2022/11/09 13:52:53;;;;;;;;;0.00;0.00;;;;;17.19;52.81;100908.91;5056929;28;45448;-72
2022/11/09 13:55:25;;;;;;;;;0.00;0.00;;;;;17.24;53.16;100878.78;5056745;28;45330;-74
2022/11/09 13:57:54;;;;;;;;;0.25;0.25;;;;;17.77;51.54;100915.59;5056627;28;45541;-74
2022/11/09 14:00:23;;;;;;;;;0.00;0.00;;;;;18.11;50.87;100912.16;5057298;28;45759;-73
2022/11/09 14:03:22;;;;;;;;;2.25;0.00;;;;;18.33;49.96;100938.53;5057177;28;45380;-73
2022/11/09 14:05:51;;;;;;;;;0.00;0.00;;;;;18.85;49.63;100923.72;5051991;28;45651;-74
2022/11/09 14:08:21;;;;;;;;;0.00;0.00;;;;;19.22;48.51;100932.59;5056026;28;47024;-73
2022/11/09 14:11:26;;;;;;;;;0.75;0.75;;;;;19.47;47.68;100935.13;5056607;28;45458;-74
2022/11/09 14:14:03;;;;;;;;;0.75;0.75;;;;;19.98;46.44;100942.78;5057192;28;45413;-72
2022/11/09 14:16:38;;;;;;;;;1.00;1.00;;;;;20.28;46.15;100933.91;5053264;28;45226;-77
2022/11/09 14:19:18;;;;;;;;;0.00;0.00;;;;;20.48;45.00;100945.91;5047408;28;46418;-76
2022/11/09 14:21:46;;;;;;;;;0.25;0.00;;;;;20.60;45.24;100934.81;5049004;28;45463;-72
2022/11/09 14:24:27;;;;;;;;;0.00;0.00;;;;;20.68;44.66;100931.44;5048157;28;45490;-71
2022/11/09 14:26:59;;;;;;;;;0.50;0.50;;;;;20.45;45.44;100951.59;5046575;28;45460;-74
2022/11/09 14:29:25;;;;;;;;;0.00;0.00;;;;;20.01;46.11;100942.50;5036343;28;46886;-73
2022/11/09 14:31:50;;;;;;;;;1.50;0.50;;;;;19.60;46.92;100949.47;5043832;28;45792;-75
2022/11/09 14:34:16;;;;;;;;;0.50;0.50;;;;;19.10;47.71;100958.88;5050501;28;45700;-74
2022/11/09 14:36:42;;;;;;;;;0.00;0.00;;;;;18.75;49.25;100955.28;5052068;28;45253;-74
2022/11/09 14:39:24;;;;;;;;;1.75;0.00;;;;;18.94;49.30;100968.34;5042198;28;45793;-74
2022/11/09 14:41:50;;;;;;;;;0.00;0.00;;;;;19.10;48.73;100961.59;5055969;28;45422;-73
2022/11/09 14:44:31;;;;;;;;;1.50;0.75;;;;;19.08;48.57;100958.13;5055798;28;45649;-74
2022/11/09 14:46:56;;;;;;;;;1.00;1.00;;;;;19.00;48.52;100971.44;5037178;28;45457;-73
2022/11/09 14:49:24;;;;;;;;;0.00;0.00;;;;;18.60;49.04;100975.47;5054349;28;45378;-73
2022/11/09 14:51:49;;;;;;;;;1.25;0.00;;;;;18.11;49.89;100958.28;5036559;28;45479;-75
2022/11/09 14:54:18;;;;;;;;;0.00;0.00;;;;;17.91;50.98;100983.25;5054443;28;45707;-74
2022/11/09 14:56:44;;;;;;;;;0.00;0.00;;;;;17.69;51.00;100977.66;5055660;28;45475;-72
2022/11/09 14:59:35;;;;;;;;;1.75;0.75;;;;;17.59;51.40;100985.56;5055121;28;46611;-73
2022/11/09 15:02:08;;;;;;;;;1.25;1.00;;;;;17.67;51.56;101009.44;5052631;28;45394;-73
2022/11/09 15:05:03;;;;;;;;;1.00;1.00;;;;;17.73;51.17;100998.16;5038992;28;45260;-76
2022/11/09 15:07:32;;;;;;;;;3.75;1.50;;;;;17.88;50.72;100999.75;5055950;28;45402;-73
2022/11/09 15:10:01;;;;;;;;;2.00;0.50;;;;;17.96;50.86;101007.34;5055595;28;47276;-73
2022/11/09 15:12:28;;;;;;;;;2.75;0.75;;;;;17.95;50.88;101006.47;5056551;28;45248;-74
2022/11/09 15:15:01;;;;;;;;;1.00;1.00;;;;;17.88;51.03;100997.03;5056211;28;45371;-73
2022/11/09 15:17:26;;;;;;;;;1.00;1.00;;;;;17.92;51.23;101011.25;5051573;28;46078;-71
2022/11/09 15:19:55;;;;;;;;;1.00;1.00;;;;;17.77;51.34;101011.41;5037966;28;47242;-74
2022/11/09 15:22:35;;;;;;;;;1.00;1.00;;;;;17.64;51.94;101017.78;5055984;28;45398;-73
2022/11/09 15:25:21;;;;;;;;;0.50;0.50;;;;;17.64;51.72;101013.22;5048255;28;45489;-74
2022/11/09 15:27:56;;;;;;;;;0.00;0.00;;;;;17.45;51.63;101029.00;5052912;28;45415;-73
2022/11/09 15:30:35;;;;;;;;;1.00;1.00;;;;;17.23;51.39;101010.69;5055612;28;47000;-72
2022/11/09 15:33:24;;;;;;;;;1.00;1.00;;;;;17.33;51.64;101036.19;5039753;28;45455;-73
2022/11/09 15:35:56;;;;;;;;;2.00;0.50;;;;;17.27;51.97;101039.28;5035494;28;45480;-73
2022/11/09 15:38:29;;;;;;;;;0.50;0.50;;;;;17.28;52.45;101035.59;5035314;28;45584;-73
2022/11/09 15:40:55;;;;;;;;;2.00;0.75;;;;;17.24;52.63;101044.06;5035293;28;46139;-73
2022/11/09 15:43:20;;;;;;;;;3.50;1.00;;;;;17.15;52.63;101039.28;5017359;28;45417;-73
2022/11/09 15:45:45;;;;;;;;;1.00;1.00;;;;;17.14;52.45;101053.78;5017596;28;45525;-73
2022/11/09 15:48:11;;;;;;;;;1.75;1.75;;;;;16.97;52.62;101036.84;5035510;28;45385;-73
2022/11/09 15:50:37;;;;;;;;;1.00;1.00;;;;;17.00;53.31;101042.06;5035317;28;47212;-73
2022/11/09 15:53:03;;;;;;;;;1.75;1.75;;;;;16.97;53.46;101050.41;5035553;28;45363;-74
2022/11/09 15:55:28;;;;;;;;;0.50;0.50;;;;;16.93;53.45;101053.41;5018336;28;45410;-73
2022/11/09 15:57:53;;;;;;;;;1.00;0.00;;;;;16.91;53.29;101048.09;5036066;28;45595;-73
2022/11/09 16:00:21;;;;;;;;;1.50;1.50;;;;;16.83;53.63;101050.47;5017534;28;50097;-72
2022/11/09 16:02:48;;;;;;;;;1.00;1.00;;;;;16.75;53.78;101051.94;5034905;28;45186;-73
2022/11/09 16:05:14;;;;;;;;;1.00;1.00;;;;;16.68;54.04;101062.28;5016617;28;45470;-73
2022/11/09 16:07:53;;;;;;;;;1.00;1.00;;;;;16.64;53.96;101060.78;5034791;28;45649;-72
2022/11/09 16:10:22;;;;;;;;;2.75;0.75;;;;;16.51;54.34;101057.09;5034816;28;46249;-72
2022/11/09 16:12:51;;;;;;;;;1.00;1.00;;;;;16.37;54.38;101062.53;5035100;28;45432;-73
2022/11/09 16:15:18;;;;;;;;;1.50;1.00;;;;;16.37;54.54;101079.66;5035086;28;45277;-74
2022/11/09 16:17:43;;;;;;;;;1.50;1.50;;;;;16.26;54.83;101083.03;5034730;28;45362;-73
2022/11/09 16:20:09;;;;;;;;;1.25;1.25;;;;;16.18;55.57;101096.19;5034975;28;46205;-71
2022/11/09 16:22:34;;;;;;;;;2.50;1.25;;;;;16.10;54.95;101101.22;5034510;28;45573;-73
2022/11/09 16:25:00;;;;;;;;;3.00;2.00;;;;;16.05;55.61;101099.78;5033716;28;45651;-74
2022/11/09 16:27:26;;;;;;;;;3.50;1.00;;;;;16.01;55.65;101115.31;5030359;28;46438;-71
2022/11/09 16:29:52;;;;;;;;;1.00;1.00;;;;;15.98;55.88;101126.34;5055297;28;45199;-73
2022/11/09 16:32:18;;;;;;;;;4.25;2.75;;;;;15.87;55.99;101113.47;5024308;28;45253;-72
2022/11/09 16:34:43;;;;;;;;;1.25;1.00;;;;;15.91;55.75;101129.53;5035219;28;45347;-73
2022/11/09 16:37:09;;;;;;;;;1.00;1.00;;;;;15.82;56.06;101130.97;5034895;28;45217;-74
2022/11/09 16:39:34;;;;;;;;;2.50;2.00;;;;;15.79;56.31;101141.94;5034756;28;45280;-76
2022/11/09 16:42:06;;;;;;;;;1.50;1.50;;;;;15.67;56.67;101130.03;5035052;28;45642;-76
2022/11/09 16:44:35;;;;;;;;;3.00;1.00;;;;;15.65;56.97;101140.06;5035543;28;45522;-72
2022/11/09 16:47:06;;;;;;;;;1.00;0.00;;;;;15.61;56.92;101137.66;5034720;28;45440;-74
2022/11/09 16:49:31;;;;;;;;;2.75;2.00;;;;;15.57;57.18;101153.16;5035175;28;45465;-74
2022/11/09 16:51:57;;;;;;;;;1.00;1.00;;;;;15.48;57.17;101154.56;5036823;28;45363;-74
2022/11/09 16:54:22;;;;;;;;;3.75;2.00;;;;;15.48;57.58;101162.66;5036440;28;45296;-73
2022/11/09 16:56:47;;;;;;;;;3.00;3.00;;;;;15.46;57.48;101167.31;5037258;28;45328;-72
2022/11/09 16:59:13;;;;;;;;;1.50;1.50;;;;;15.40;58.01;101162.25;5016851;28;46753;-74
2022/11/09 17:01:39;;;;;;;;;2.00;2.00;;;;;15.34;57.76;101172.56;5047726;28;45565;-74
2022/11/09 17:04:04;;;;;;;;;4.75;4.75;;;;;15.24;58.09;101168.66;5034553;28;45631;-75
2022/11/09 17:06:32;;;;;;;;;2.00;2.00;;;;;15.30;58.38;101190.78;5034301;28;45466;-74
2022/11/09 17:08:57;;;;;;;;;1.75;1.00;;;;;15.30;58.38;101190.78;5015286;28;46679;-74
2022/11/09 17:11:22;;;;;;;;;2.00;2.00;;;;;15.31;58.35;101191.66;5034448;28;45470;-74
2022/11/09 17:13:56;;;;;;;;;1.00;1.00;;;;;15.24;58.17;101184.84;5034647;28;45387;-75
2022/11/09 17:16:22;;;;;;;;;2.00;2.00;;;;;15.31;58.12;101200.59;5033839;28;45546;-71